sensor_id;sensor_type;location;lat;lon;timestamp;pressure;altitude;pressure_sealevel;temperature;humidity
32789;BME280;19141;48.980;8.410;2024-03-08T05:22:32;100020.06;;;1.27;100.00
32789;BME280;19141;48.980;8.410;2024-03-08T05:24:58;100017.31;;;1.14;100.00
32789;BME280;19141;48.980;8.410;2024-03-08T05:27:23;100018.75;;;1.19;100.00
32789;BME280;19141;48.980;8.410;2024-03-08T05:29:48;100010.81;;;1.21;100.00
32789;BME280;19141;48.980;8.410;2024-03-08T05:32:14;100007.19;;;1.11;100.00
32789;BME280;19141;48.980;8.410;2024-03-08T05:34:39;100002.69;;;1.17;100.00
32789;BME280;19141;48.980;8.410;2024-03-08T05:37:04;100005.09;;;1.03;100.00
32789;BME280;19141;48.980;8.410;2024-03-08T05:39:30;100008.66;;;1.16;100.00
32789;BME280;19141;48.980;8.410;2024-03-08T05:41:55;100014.22;;;1.25;100.00
32789;BME280;19141;48.980;8.410;2024-03-08T05:44:21;99999.59;;;1.28;100.00
32789;BME280;19141;48.980;8.410;2024-03-08T05:46:47;99999.59;;;1.28;100.00
32789;BME280;19141;48.980;8.410;2024-03-08T05:49:12;99999.28;;;1.26;100.00
32789;BME280;19141;48.980;8.410;2024-03-08T05:51:39;99991.59;;;1.21;100.00
32789;BME280;19141;48.980;8.410;2024-03-08T05:54:10;99996.75;;;1.32;100.00
32789;BME280;19141;48.980;8.410;2024-03-08T05:56:36;99989.03;;;1.39;100.00
32789;BME280;19141;48.980;8.410;2024-03-08T05:59:02;100010.78;;;1.47;100.00
32789;BME280;19141;48.980;8.410;2024-03-08T06:01:27;99998.28;;;1.46;100.00
32789;BME280;19141;48.980;8.410;2024-03-08T06:03:53;99997.63;;;1.42;100.00
32789;BME280;19141;48.980;8.410;2024-03-08T06:06:21;99997.28;;;1.39;100.00
32789;BME280;19141;48.980;8.410;2024-03-08T06:08:47;99997.16;;;1.43;100.00
32789;BME280;19141;48.980;8.410;2024-03-08T06:11:14;100001.91;;;1.43;100.00
32789;BME280;19141;48.980;8.410;2024-03-08T06:13:40;99990.22;;;1.86;100.00
32789;BME280;19141;48.980;8.410;2024-03-08T06:16:05;100000.75;;;2.00;100.00
32789;BME280;19141;48.980;8.410;2024-03-08T06:18:36;99986.72;;;2.07;100.00
32789;BME280;19141;48.980;8.410;2024-03-08T06:21:05;99983.66;;;2.27;100.00
32789;BME280;19141;48.980;8.410;2024-03-08T06:23:34;99993.47;;;2.06;100.00
32789;BME280;19141;48.980;8.410;2024-03-08T06:26:04;99984.44;;;2.06;100.00
32789;BME280;19141;48.980;8.410;2024-03-08T06:28:30;99988.88;;;2.25;100.00
32789;BME280;19141;48.980;8.410;2024-03-08T06:30:55;99991.28;;;2.23;100.00
32789;BME280;19141;48.980;8.410;2024-03-08T06:33:21;99979.97;;;3.24;96.12
32789;BME280;19141;48.980;8.410;2024-03-08T06:35:46;99977.00;;;4.14;87.01
32789;BME280;19141;48.980;8.410;2024-03-08T06:38:12;99976.75;;;4.73;83.07
32789;BME280;19141;48.980;8.410;2024-03-08T06:40:37;99994.66;;;4.07;89.22
32789;BME280;19141;48.980;8.410;2024-03-08T06:43:03;99976.84;;;4.36;84.13
32789;BME280;19141;48.980;8.410;2024-03-08T06:45:31;99985.28;;;4.14;87.35
32789;BME280;19141;48.980;8.410;2024-03-08T06:47:57;99987.16;;;3.99;86.43
32789;BME280;19141;48.980;8.410;2024-03-08T06:50:22;99976.41;;;3.73;88.71
32789;BME280;19141;48.980;8.410;2024-03-08T06:52:48;99971.63;;;5.47;79.24
32789;BME280;19141;48.980;8.410;2024-03-08T06:55:19;99973.69;;;7.74;65.85
32789;BME280;19141;48.980;8.410;2024-03-08T06:57:45;99975.09;;;6.04;70.12
32789;BME280;19141;48.980;8.410;2024-03-08T07:00:11;99976.72;;;7.97;63.43
32789;BME280;19141;48.980;8.410;2024-03-08T07:02:44;99969.38;;;7.53;63.54
32789;BME280;19141;48.980;8.410;2024-03-08T07:05:11;99968.00;;;8.56;60.16
32789;BME280;19141;48.980;8.410;2024-03-08T07:07:36;99966.50;;;7.47;63.20
32789;BME280;19141;48.980;8.410;2024-03-08T07:10:03;99966.91;;;8.48;60.00
32789;BME280;19141;48.980;8.410;2024-03-08T07:12:28;99967.88;;;7.16;64.41
32789;BME280;19141;48.980;8.410;2024-03-08T07:14:53;99959.75;;;10.24;56.28
32789;BME280;19141;48.980;8.410;2024-03-08T07:17:19;99960.59;;;9.16;56.05
32789;BME280;19141;48.980;8.410;2024-03-08T07:19:45;99970.06;;;7.12;61.73
32789;BME280;19141;48.980;8.410;2024-03-08T07:22:10;99955.94;;;9.02;59.10
32789;BME280;19141;48.980;8.410;2024-03-08T07:24:36;99946.72;;;9.22;56.46
32789;BME280;19141;48.980;8.410;2024-03-08T07:27:02;99953.78;;;9.17;56.37
32789;BME280;19141;48.980;8.410;2024-03-08T07:29:30;99953.44;;;11.30;51.64
32789;BME280;19141;48.980;8.410;2024-03-08T07:31:55;99952.78;;;11.71;50.86
32789;BME280;19141;48.980;8.410;2024-03-08T07:34:28;99964.28;;;9.02;56.00
32789;BME280;19141;48.980;8.410;2024-03-08T07:36:57;99950.47;;;10.61;52.11
32789;BME280;19141;48.980;8.410;2024-03-08T07:39:23;99961.31;;;8.74;55.08
32789;BME280;19141;48.980;8.410;2024-03-08T07:41:49;99952.09;;;9.31;55.96
32789;BME280;19141;48.980;8.410;2024-03-08T07:44:18;99952.13;;;10.02;53.74
32789;BME280;19141;48.980;8.410;2024-03-08T07:46:43;99945.88;;;8.41;57.24
32789;BME280;19141;48.980;8.410;2024-03-08T07:49:09;99949.28;;;8.04;58.54
32789;BME280;19141;48.980;8.410;2024-03-08T07:51:37;99952.41;;;8.64;57.34
32789;BME280;19141;48.980;8.410;2024-03-08T07:54:03;99941.25;;;11.33;51.61
32789;BME280;19141;48.980;8.410;2024-03-08T07:56:34;99933.91;;;8.93;57.18
32789;BME280;19141;48.980;8.410;2024-03-08T07:59:02;99926.75;;;9.23;55.49
32789;BME280;19141;48.980;8.410;2024-03-08T08:01:29;99924.84;;;8.66;57.61
32789;BME280;19141;48.980;8.410;2024-03-08T08:03:56;99937.41;;;8.56;57.70
32789;BME280;19141;48.980;8.410;2024-03-08T08:06:22;99916.75;;;9.48;57.05
32789;BME280;19141;48.980;8.410;2024-03-08T08:08:47;99929.34;;;8.32;57.98
32789;BME280;19141;48.980;8.410;2024-03-08T08:11:13;99929.84;;;10.02;55.03
32789;BME280;19141;48.980;8.410;2024-03-08T08:13:38;99927.31;;;8.58;57.92
32789;BME280;19141;48.980;8.410;2024-03-08T08:16:04;99942.03;;;9.45;54.52
32789;BME280;19141;48.980;8.410;2024-03-08T08:18:31;99910.63;;;10.26;54.18
32789;BME280;19141;48.980;8.410;2024-03-08T08:20:58;99909.56;;;10.07;55.06
32789;BME280;19141;48.980;8.410;2024-03-08T08:23:25;99916.84;;;9.17;56.81
32789;BME280;19141;48.980;8.410;2024-03-08T08:25:51;99909.53;;;9.19;55.44
32789;BME280;19141;48.980;8.410;2024-03-08T08:28:17;99901.28;;;8.99;57.18
32789;BME280;19141;48.980;8.410;2024-03-08T08:30:45;99913.34;;;8.84;58.35
32789;BME280;19141;48.980;8.410;2024-03-08T08:33:11;99908.78;;;8.81;56.11
32789;BME280;19141;48.980;8.410;2024-03-08T08:35:37;99917.44;;;7.18;61.42
32789;BME280;19141;48.980;8.410;2024-03-08T08:38:06;99926.84;;;9.46;55.13
32789;BME280;19141;48.980;8.410;2024-03-08T08:40:33;99910.59;;;11.75;51.55
32789;BME280;19141;48.980;8.410;2024-03-08T08:42:59;99906.22;;;9.80;54.36
32789;BME280;19141;48.980;8.410;2024-03-08T08:45:32;99908.44;;;9.05;56.00
32789;BME280;19141;48.980;8.410;2024-03-08T08:47:58;99901.03;;;10.28;54.86
32789;BME280;19141;48.980;8.410;2024-03-08T08:50:25;99908.50;;;8.79;56.81
32789;BME280;19141;48.980;8.410;2024-03-08T08:52:52;99908.44;;;9.11;55.69
32789;BME280;19141;48.980;8.410;2024-03-08T08:55:18;99898.41;;;11.08;52.83
32789;BME280;19141;48.980;8.410;2024-03-08T08:57:46;99929.78;;;9.91;52.73
32789;BME280;19141;48.980;8.410;2024-03-08T09:00:13;99885.00;;;10.06;53.56
32789;BME280;19141;48.980;8.410;2024-03-08T09:02:41;99895.53;;;11.95;49.95
32789;BME280;19141;48.980;8.410;2024-03-08T09:05:07;99887.31;;;10.75;52.00
32789;BME280;19141;48.980;8.410;2024-03-08T09:07:35;99904.03;;;9.36;55.16
32789;BME280;19141;48.980;8.410;2024-03-08T09:10:00;99894.34;;;9.86;54.27
32789;BME280;19141;48.980;8.410;2024-03-08T09:12:27;99894.94;;;10.46;51.81
32789;BME280;19141;48.980;8.410;2024-03-08T09:14:53;99894.41;;;9.37;54.53
32789;BME280;19141;48.980;8.410;2024-03-08T09:17:20;99893.91;;;10.60;53.25
32789;BME280;19141;48.980;8.410;2024-03-08T09:19:49;99890.25;;;8.67;56.84
32789;BME280;19141;48.980;8.410;2024-03-08T09:22:15;99883.28;;;10.53;52.76
32789;BME280;19141;48.980;8.410;2024-03-08T09:24:41;99887.66;;;11.35;50.33
32789;BME280;19141;48.980;8.410;2024-03-08T09:27:08;99897.34;;;9.82;53.68
32789;BME280;19141;48.980;8.410;2024-03-08T09:29:35;99878.72;;;10.28;54.15
32789;BME280;19141;48.980;8.410;2024-03-08T09:32:00;99872.09;;;10.19;53.03
32789;BME280;19141;48.980;8.410;2024-03-08T09:34:26;99883.72;;;10.23;53.94
32789;BME280;19141;48.980;8.410;2024-03-08T09:36:52;99879.19;;;10.77;51.05
32789;BME280;19141;48.980;8.410;2024-03-08T09:39:17;99877.84;;;11.06;51.32
32789;BME280;19141;48.980;8.410;2024-03-08T09:41:45;99873.75;;;9.01;56.46
32789;BME280;19141;48.980;8.410;2024-03-08T09:44:14;99886.78;;;8.46;57.21
32789;BME280;19141;48.980;8.410;2024-03-08T09:46:40;99881.00;;;12.02;51.40
32789;BME280;19141;48.980;8.410;2024-03-08T09:49:06;99872.75;;;8.61;57.90
32789;BME280;19141;48.980;8.410;2024-03-08T09:51:33;99870.94;;;8.26;57.76
32789;BME280;19141;48.980;8.410;2024-03-08T09:54:01;99871.03;;;9.18;56.63
32789;BME280;19141;48.980;8.410;2024-03-08T09:56:32;99866.03;;;7.89;59.37
32789;BME280;19141;48.980;8.410;2024-03-08T09:58:58;99853.44;;;8.20;59.16
32789;BME280;19141;48.980;8.410;2024-03-08T10:01:42;99867.13;;;7.72;59.88
32789;BME280;19141;48.980;8.410;2024-03-08T10:04:07;99857.59;;;8.04;58.72
32789;BME280;19141;48.980;8.410;2024-03-08T10:06:34;99876.47;;;7.48;60.44
32789;BME280;19141;48.980;8.410;2024-03-08T10:09:00;99859.25;;;7.64;61.45
32789;BME280;19141;48.980;8.410;2024-03-08T10:11:26;99891.44;;;7.56;60.56
32789;BME280;19141;48.980;8.410;2024-03-08T10:13:52;99854.22;;;8.21;60.16
32789;BME280;19141;48.980;8.410;2024-03-08T10:16:17;99840.94;;;8.36;60.08
32789;BME280;19141;48.980;8.410;2024-03-08T10:18:45;99840.19;;;8.04;59.71
32789;BME280;19141;48.980;8.410;2024-03-08T10:21:10;99846.38;;;7.67;60.35
32789;BME280;19141;48.980;8.410;2024-03-08T10:23:37;99836.63;;;9.09;56.96
32789;BME280;19141;48.980;8.410;2024-03-08T10:26:11;99844.09;;;7.65;60.82
32789;BME280;19141;48.980;8.410;2024-03-08T10:28:44;99841.22;;;9.24;56.90
32789;BME280;19141;48.980;8.410;2024-03-08T10:31:10;99818.84;;;9.67;56.29
32789;BME280;19141;48.980;8.410;2024-03-08T10:33:36;99819.47;;;8.36;58.16
32789;BME280;19141;48.980;8.410;2024-03-08T10:36:03;99824.69;;;10.25;54.46
32789;BME280;19141;48.980;8.410;2024-03-08T10:38:31;99817.00;;;9.41;56.55
32789;BME280;19141;48.980;8.410;2024-03-08T10:41:01;99820.09;;;8.95;56.88
32789;BME280;19141;48.980;8.410;2024-03-08T10:43:31;99823.19;;;9.96;56.14
32789;BME280;19141;48.980;8.410;2024-03-08T10:46:30;99810.78;;;10.08;55.98
32789;BME280;19141;48.980;8.410;2024-03-08T10:48:57;99814.00;;;10.85;54.00
32789;BME280;19141;48.980;8.410;2024-03-08T10:51:25;99811.25;;;10.63;53.61
32789;BME280;19141;48.980;8.410;2024-03-08T10:53:52;99813.28;;;9.01;55.62
32789;BME280;19141;48.980;8.410;2024-03-08T10:56:17;99807.38;;;8.77;56.96
32789;BME280;19141;48.980;8.410;2024-03-08T10:58:43;99820.69;;;8.61;58.27
32789;BME280;19141;48.980;8.410;2024-03-08T11:01:09;99819.22;;;8.72;58.35
32789;BME280;19141;48.980;8.410;2024-03-08T11:06:30;99817.03;;;8.18;58.83
32789;BME280;19141;48.980;8.410;2024-03-08T11:08:57;99810.56;;;8.27;58.82
32789;BME280;19141;48.980;8.410;2024-03-08T11:14:00;99805.59;;;8.05;61.13
32789;BME280;19141;48.980;8.410;2024-03-08T11:19:00;99795.19;;;7.47;61.56
32789;BME280;19141;48.980;8.410;2024-03-08T11:21:30;99806.19;;;7.36;61.87
32789;BME280;19141;48.980;8.410;2024-03-08T11:24:07;99805.78;;;9.19;59.02
32789;BME280;19141;48.980;8.410;2024-03-08T11:26:33;99802.16;;;7.58;62.16
32789;BME280;19141;48.980;8.410;2024-03-08T11:31:51;99794.88;;;8.55;58.22
32789;BME280;19141;48.980;8.410;2024-03-08T11:34:16;99784.84;;;9.46;56.99
32789;BME280;19141;48.980;8.410;2024-03-08T11:36:42;99777.94;;;9.13;57.85
32789;BME280;19141;48.980;8.410;2024-03-08T11:39:07;99781.06;;;9.49;57.34
32789;BME280;19141;48.980;8.410;2024-03-08T11:41:39;99785.50;;;9.07;57.06
32789;BME280;19141;48.980;8.410;2024-03-08T11:44:06;99791.00;;;8.10;59.67
32789;BME280;19141;48.980;8.410;2024-03-08T11:46:32;99792.69;;;8.02;61.72
32789;BME280;19141;48.980;8.410;2024-03-08T11:48:59;99774.59;;;7.80;62.03
32789;BME280;19141;48.980;8.410;2024-03-08T11:51:26;99773.22;;;8.71;60.02
32789;BME280;19141;48.980;8.410;2024-03-08T11:53:52;99788.09;;;7.99;59.48
32789;BME280;19141;48.980;8.410;2024-03-08T11:56:17;99774.09;;;7.82;61.02
32789;BME280;19141;48.980;8.410;2024-03-08T11:58:55;99768.50;;;7.50;62.99
32789;BME280;19141;48.980;8.410;2024-03-08T12:01:23;99764.00;;;8.16;60.77
32789;BME280;19141;48.980;8.410;2024-03-08T12:03:56;99755.38;;;9.00;59.32
32789;BME280;19141;48.980;8.410;2024-03-08T12:06:36;99743.97;;;8.38;59.76
32789;BME280;19141;48.980;8.410;2024-03-08T12:09:09;99736.94;;;9.02;59.19
32789;BME280;19141;48.980;8.410;2024-03-08T12:11:35;99743.19;;;8.00;60.09
32789;BME280;19141;48.980;8.410;2024-03-08T12:14:02;99751.59;;;7.28;62.26
32789;BME280;19141;48.980;8.410;2024-03-08T12:16:27;99734.31;;;8.82;59.72
32789;BME280;19141;48.980;8.410;2024-03-08T12:18:53;99727.81;;;8.42;60.58
32789;BME280;19141;48.980;8.410;2024-03-08T12:21:19;99722.25;;;8.96;59.02
32789;BME280;19141;48.980;8.410;2024-03-08T12:24:07;99715.59;;;8.82;59.47
32789;BME280;19141;48.980;8.410;2024-03-08T12:26:39;99722.53;;;8.07;60.46
32789;BME280;19141;48.980;8.410;2024-03-08T12:31:46;99713.63;;;8.94;58.61
32789;BME280;19141;48.980;8.410;2024-03-08T12:34:11;99727.66;;;8.62;59.93
32789;BME280;19141;48.980;8.410;2024-03-08T12:36:44;99722.81;;;7.51;62.28
32789;BME280;19141;48.980;8.410;2024-03-08T12:39:10;99714.28;;;8.24;61.47
32789;BME280;19141;48.980;8.410;2024-03-08T12:41:40;99726.63;;;9.31;57.81
32789;BME280;19141;48.980;8.410;2024-03-08T12:44:06;99700.72;;;8.91;59.08
32789;BME280;19141;48.980;8.410;2024-03-08T12:46:37;99684.84;;;9.14;58.63
32789;BME280;19141;48.980;8.410;2024-03-08T12:49:08;99691.63;;;9.02;59.56
32789;BME280;19141;48.980;8.410;2024-03-08T12:51:34;99683.88;;;9.45;58.63
32789;BME280;19141;48.980;8.410;2024-03-08T12:54:01;99684.38;;;9.49;59.66
32789;BME280;19141;48.980;8.410;2024-03-08T12:56:30;99648.13;;;8.88;59.33
32789;BME280;19141;48.980;8.410;2024-03-08T12:58:58;99673.47;;;9.06;59.63
32789;BME280;19141;48.980;8.410;2024-03-08T13:01:23;99664.06;;;8.87;60.63
32789;BME280;19141;48.980;8.410;2024-03-08T13:03:49;99679.06;;;8.47;60.07
32789;BME280;19141;48.980;8.410;2024-03-08T13:06:18;99658.97;;;8.85;59.81
32789;BME280;19141;48.980;8.410;2024-03-08T13:08:47;99652.44;;;8.94;59.82
32789;BME280;19141;48.980;8.410;2024-03-08T13:11:13;99647.34;;;8.81;59.78
32789;BME280;19141;48.980;8.410;2024-03-08T13:13:40;99648.56;;;8.15;60.60
32789;BME280;19141;48.980;8.410;2024-03-08T13:16:08;99648.84;;;8.17;62.08
32789;BME280;19141;48.980;8.410;2024-03-08T13:18:34;99629.22;;;9.42;60.11
32789;BME280;19141;48.980;8.410;2024-03-08T13:21:00;99625.91;;;9.61;59.37
32789;BME280;19141;48.980;8.410;2024-03-08T13:23:32;99628.44;;;9.30;59.34
32789;BME280;19141;48.980;8.410;2024-03-08T13:25:57;99613.25;;;9.48;58.73
32789;BME280;19141;48.980;8.410;2024-03-08T13:28:23;99609.22;;;9.55;59.57
32789;BME280;19141;48.980;8.410;2024-03-08T13:30:53;99606.41;;;9.72;59.29
32789;BME280;19141;48.980;8.410;2024-03-08T13:33:19;99598.75;;;8.60;61.93
32789;BME280;19141;48.980;8.410;2024-03-08T13:35:45;99596.81;;;9.05;60.86
32789;BME280;19141;48.980;8.410;2024-03-08T13:38:12;99593.75;;;8.81;61.19
32789;BME280;19141;48.980;8.410;2024-03-08T13:40:39;99592.25;;;8.97;61.17
32789;BME280;19141;48.980;8.410;2024-03-08T13:43:06;99594.03;;;9.00;61.82
32789;BME280;19141;48.980;8.410;2024-03-08T13:45:34;99579.06;;;8.75;62.39
32789;BME280;19141;48.980;8.410;2024-03-08T13:48:03;99581.13;;;9.47;61.21
32789;BME280;19141;48.980;8.410;2024-03-08T13:50:30;99564.28;;;9.98;60.47
32789;BME280;19141;48.980;8.410;2024-03-08T13:52:55;99578.09;;;9.12;59.97
32789;BME280;19141;48.980;8.410;2024-03-08T13:55:21;99572.50;;;8.78;62.25
32789;BME280;19141;48.980;8.410;2024-03-08T13:57:48;99568.97;;;8.83;61.73
32789;BME280;19141;48.980;8.410;2024-03-08T14:00:14;99563.91;;;8.98;62.51
32789;BME280;19141;48.980;8.410;2024-03-08T14:02:40;99560.66;;;9.00;62.77
32789;BME280;19141;48.980;8.410;2024-03-08T14:05:09;99571.25;;;9.01;62.66
32789;BME280;19141;48.980;8.410;2024-03-08T14:07:37;99559.13;;;8.93;63.30
32789;BME280;19141;48.980;8.410;2024-03-08T14:10:02;99557.88;;;9.22;61.16
32789;BME280;19141;48.980;8.410;2024-03-08T14:12:28;99572.03;;;9.07;61.94
32789;BME280;19141;48.980;8.410;2024-03-08T14:14:53;99549.53;;;9.05;61.55
32789;BME280;19141;48.980;8.410;2024-03-08T14:17:19;99549.03;;;9.18;61.70
32789;BME280;19141;48.980;8.410;2024-03-08T14:19:45;99546.72;;;8.77;62.16
32789;BME280;19141;48.980;8.410;2024-03-08T14:22:10;99541.19;;;9.05;61.60
32789;BME280;19141;48.980;8.410;2024-03-08T14:24:40;99532.31;;;9.01;62.33
32789;BME280;19141;48.980;8.410;2024-03-08T14:27:08;99531.81;;;9.14;62.01
32789;BME280;19141;48.980;8.410;2024-03-08T14:29:35;99538.41;;;9.00;62.85
32789;BME280;19141;48.980;8.410;2024-03-08T14:32:01;99525.50;;;9.25;62.37
32789;BME280;19141;48.980;8.410;2024-03-08T14:34:28;99532.03;;;9.33;61.35
32789;BME280;19141;48.980;8.410;2024-03-08T14:36:55;99536.09;;;9.04;62.28
32789;BME280;19141;48.980;8.410;2024-03-08T14:39:21;99503.69;;;9.46;61.45
32789;BME280;19141;48.980;8.410;2024-03-08T14:41:50;99505.25;;;9.07;62.08
32789;BME280;19141;48.980;8.410;2024-03-08T14:44:19;99506.50;;;8.95;61.46
32789;BME280;19141;48.980;8.410;2024-03-08T14:46:45;99491.78;;;9.34;61.20
32789;BME280;19141;48.980;8.410;2024-03-08T14:49:11;99500.41;;;9.30;61.00
32789;BME280;19141;48.980;8.410;2024-03-08T14:51:36;99485.72;;;9.41;60.44
32789;BME280;19141;48.980;8.410;2024-03-08T14:54:02;99493.38;;;9.18;60.81
32789;BME280;19141;48.980;8.410;2024-03-08T14:56:27;99474.84;;;9.38;60.28
32789;BME280;19141;48.980;8.410;2024-03-08T14:58:53;99469.78;;;9.36;60.85
32789;BME280;19141;48.980;8.410;2024-03-08T15:01:19;99464.16;;;9.53;60.11
32789;BME280;19141;48.980;8.410;2024-03-08T15:03:50;99470.28;;;9.46;59.94
32789;BME280;19141;48.980;8.410;2024-03-08T15:06:15;99466.19;;;9.52;59.73
32789;BME280;19141;48.980;8.410;2024-03-08T15:08:45;99455.88;;;9.42;59.81
32789;BME280;19141;48.980;8.410;2024-03-08T15:11:11;99452.06;;;9.50;60.59
32789;BME280;19141;48.980;8.410;2024-03-08T15:13:36;99448.47;;;9.61;60.10
32789;BME280;19141;48.980;8.410;2024-03-08T15:16:09;99443.16;;;9.52;60.50
32789;BME280;19141;48.980;8.410;2024-03-08T15:18:42;99436.31;;;9.53;59.87
32789;BME280;19141;48.980;8.410;2024-03-08T15:21:12;99442.38;;;9.63;60.00
32789;BME280;19141;48.980;8.410;2024-03-08T15:23:37;99426.91;;;9.67;59.95
32789;BME280;19141;48.980;8.410;2024-03-08T15:26:08;99427.22;;;9.52;59.30
32789;BME280;19141;48.980;8.410;2024-03-08T15:28:33;99415.53;;;9.60;59.67
32789;BME280;19141;48.980;8.410;2024-03-08T15:31:06;99415.78;;;9.67;59.30
32789;BME280;19141;48.980;8.410;2024-03-08T15:33:35;99424.13;;;9.73;59.68
32789;BME280;19141;48.980;8.410;2024-03-08T15:36:14;99408.22;;;9.56;59.35
32789;BME280;19141;48.980;8.410;2024-03-08T15:38:41;99403.66;;;9.59;60.40
32789;BME280;19141;48.980;8.410;2024-03-08T15:41:09;99405.59;;;9.75;59.59
32789;BME280;19141;48.980;8.410;2024-03-08T15:43:38;99395.00;;;9.74;59.10
32789;BME280;19141;48.980;8.410;2024-03-08T15:46:09;99395.47;;;9.72;59.47
32789;BME280;19141;48.980;8.410;2024-03-08T15:48:36;99384.59;;;9.74;59.07
32789;BME280;19141;48.980;8.410;2024-03-08T15:51:03;99402.41;;;9.60;58.39
32789;BME280;19141;48.980;8.410;2024-03-08T15:53:34;99410.22;;;9.62;58.97
32789;BME280;19141;48.980;8.410;2024-03-08T15:56:03;99388.25;;;9.52;58.78
32789;BME280;19141;48.980;8.410;2024-03-08T15:58:31;99387.50;;;9.52;58.68
32789;BME280;19141;48.980;8.410;2024-03-08T16:00:57;99381.09;;;9.63;59.15
32789;BME280;19141;48.980;8.410;2024-03-08T16:03:25;99377.34;;;9.60;59.42
32789;BME280;19141;48.980;8.410;2024-03-08T16:05:52;99379.13;;;9.52;59.34
32789;BME280;19141;48.980;8.410;2024-03-08T16:08:19;99383.44;;;9.53;59.18
32789;BME280;19141;48.980;8.410;2024-03-08T16:10:49;99370.75;;;9.57;59.28
32789;BME280;19141;48.980;8.410;2024-03-08T16:13:19;99368.25;;;9.54;58.97
32789;BME280;19141;48.980;8.410;2024-03-08T16:15:46;99365.75;;;9.50;59.41
32789;BME280;19141;48.980;8.410;2024-03-08T16:18:12;99353.34;;;9.46;59.16
32789;BME280;19141;48.980;8.410;2024-03-08T16:20:41;99349.56;;;9.43;59.85
32789;BME280;19141;48.980;8.410;2024-03-08T16:23:09;99346.78;;;9.43;59.59
32789;BME280;19141;48.980;8.410;2024-03-08T16:25:36;99336.94;;;9.37;59.38
32789;BME280;19141;48.980;8.410;2024-03-08T16:28:02;99347.84;;;9.35;59.03
32789;BME280;19141;48.980;8.410;2024-03-08T16:30:28;99356.50;;;9.20;59.76
32789;BME280;19141;48.980;8.410;2024-03-08T16:32:57;99341.81;;;9.19;58.94
32789;BME280;19141;48.980;8.410;2024-03-08T16:35:23;99344.88;;;9.16;59.53
32789;BME280;19141;48.980;8.410;2024-03-08T16:37:48;99348.94;;;9.09;59.47
32789;BME280;19141;48.980;8.410;2024-03-08T16:40:16;99351.25;;;8.94;60.43
32789;BME280;19141;48.980;8.410;2024-03-08T16:42:43;99359.81;;;9.07;60.02
32789;BME280;19141;48.980;8.410;2024-03-08T16:45:10;99348.22;;;8.92;60.42
32789;BME280;19141;48.980;8.410;2024-03-08T16:47:36;99350.00;;;8.89;61.07
32789;BME280;19141;48.980;8.410;2024-03-08T16:50:02;99352.81;;;8.72;61.48
32789;BME280;19141;48.980;8.410;2024-03-08T16:52:30;99347.56;;;8.57;62.57
32789;BME280;19141;48.980;8.410;2024-03-08T16:54:57;99351.09;;;8.52;62.41
32789;BME280;19141;48.980;8.410;2024-03-08T16:57:23;99350.09;;;8.38;63.32
32789;BME280;19141;48.980;8.410;2024-03-08T16:59:51;99348.28;;;8.24;64.10
32789;BME280;19141;48.980;8.410;2024-03-08T17:02:17;99344.75;;;8.40;63.14
32789;BME280;19141;48.980;8.410;2024-03-08T17:04:43;99348.53;;;8.32;63.39
32789;BME280;19141;48.980;8.410;2024-03-08T17:07:08;99338.41;;;8.34;64.09
32789;BME280;19141;48.980;8.410;2024-03-08T17:09:34;99334.16;;;8.16;64.76
32789;BME280;19141;48.980;8.410;2024-03-08T17:12:03;99331.09;;;8.20;64.60
32789;BME280;19141;48.980;8.410;2024-03-08T17:14:30;99334.13;;;8.11;65.54
32789;BME280;19141;48.980;8.410;2024-03-08T17:16:57;99333.13;;;7.97;66.18
32789;BME280;19141;48.980;8.410;2024-03-08T17:19:25;99330.06;;;7.89;66.61
32789;BME280;19141;48.980;8.410;2024-03-08T17:21:52;99329.31;;;7.89;67.50
32789;BME280;19141;48.980;8.410;2024-03-08T17:24:21;99326.81;;;7.97;67.29
32789;BME280;19141;48.980;8.410;2024-03-08T17:26:50;99334.59;;;7.70;68.76
32789;BME280;19141;48.980;8.410;2024-03-08T17:29:16;99330.53;;;7.60;69.03
32789;BME280;19141;48.980;8.410;2024-03-08T17:31:44;99334.06;;;7.55;69.94
32789;BME280;19141;48.980;8.410;2024-03-08T17:34:10;99325.25;;;7.67;68.92
32789;BME280;19141;48.980;8.410;2024-03-08T17:36:40;99323.72;;;7.61;69.56
32789;BME280;19141;48.980;8.410;2024-03-08T17:39:05;99308.25;;;7.37;71.09
32789;BME280;19141;48.980;8.410;2024-03-08T17:41:46;99316.63;;;7.49;70.94
32789;BME280;19141;48.980;8.410;2024-03-08T17:44:16;99317.41;;;7.66;70.08
32789;BME280;19141;48.980;8.410;2024-03-08T17:46:45;99323.91;;;7.40;71.95
32789;BME280;19141;48.980;8.410;2024-03-08T17:49:13;99319.13;;;7.35;72.16
32789;BME280;19141;48.980;8.410;2024-03-08T17:51:39;99317.59;;;7.40;72.22
32789;BME280;19141;48.980;8.410;2024-03-08T17:54:08;99318.59;;;7.31;72.97
32789;BME280;19141;48.980;8.410;2024-03-08T17:56:37;99311.56;;;7.36;72.90
32789;BME280;19141;48.980;8.410;2024-03-08T17:59:04;99324.34;;;7.22;73.86
32789;BME280;19141;48.980;8.410;2024-03-08T18:01:35;99321.84;;;7.24;75.99
32789;BME280;19141;48.980;8.410;2024-03-08T18:04:10;99323.09;;;7.23;75.10
32789;BME280;19141;48.980;8.410;2024-03-08T18:06:35;99335.13;;;7.03;76.64
32789;BME280;19141;48.980;8.410;2024-03-08T18:09:08;99333.00;;;6.87;77.82
32789;BME280;19141;48.980;8.410;2024-03-08T18:11:38;99337.75;;;6.75;80.31
32789;BME280;19141;48.980;8.410;2024-03-08T18:14:04;99341.75;;;6.74;80.00
32789;BME280;19141;48.980;8.410;2024-03-08T18:16:33;99328.69;;;6.74;79.96
32789;BME280;19141;48.980;8.410;2024-03-08T18:19:00;99329.91;;;6.68;80.45
32789;BME280;19141;48.980;8.410;2024-03-08T18:21:26;99332.03;;;6.90;79.14
32789;BME280;19141;48.980;8.410;2024-03-08T18:23:53;99321.91;;;6.87;78.79
32789;BME280;19141;48.980;8.410;2024-03-08T18:26:20;99331.69;;;6.71;79.92
32789;BME280;19141;48.980;8.410;2024-03-08T18:28:45;99323.84;;;6.69;81.29
32789;BME280;19141;48.980;8.410;2024-03-08T18:31:13;99322.09;;;6.72;80.91
32789;BME280;19141;48.980;8.410;2024-03-08T18:33:39;99324.28;;;6.57;82.20
32789;BME280;19141;48.980;8.410;2024-03-08T18:36:09;99321.91;;;6.44;83.54
32789;BME280;19141;48.980;8.410;2024-03-08T18:38:36;99320.94;;;6.47;82.95
32789;BME280;19141;48.980;8.410;2024-03-08T18:41:02;99316.22;;;6.59;81.85
32789;BME280;19141;48.980;8.410;2024-03-08T18:43:27;99310.78;;;6.38;84.06